createdAt,value
2018-06-23T00:01:11.313Z,74.59
2018-06-23T00:03:39.618Z,73.87
2018-06-23T00:06:08.008Z,73.84
2018-06-23T00:08:36.240Z,73.67
2018-06-23T00:11:04.537Z,73.90
2018-06-23T00:13:32.814Z,73.61
2018-06-23T00:16:01.075Z,73.68
2018-06-23T00:18:29.399Z,73.81
2018-06-23T00:20:57.678Z,73.59
2018-06-23T00:23:25.952Z,73.82
2018-06-23T00:25:59.376Z,73.55
2018-06-23T00:28:27.684Z,73.99
2018-06-23T00:30:55.944Z,73.93
2018-06-23T00:33:24.316Z,74.20
2018-06-23T00:35:52.531Z,73.85
2018-06-23T00:38:20.868Z,73.83
2018-06-23T00:40:49.151Z,74.23
2018-06-23T00:43:17.411Z,74.28
2018-06-23T00:45:45.742Z,73.78
2018-06-23T00:48:14.041Z,73.69
2018-06-23T00:50:42.283Z,73.88
2018-06-23T00:53:10.566Z,73.63
2018-06-23T00:55:38.810Z,74.45
2018-06-23T00:58:07.106Z,74.23
2018-06-23T01:00:35.345Z,74.11
2018-06-23T01:03:03.913Z,74.00
2018-06-23T01:05:32.214Z,73.69
2018-06-23T01:08:00.487Z,73.87
2018-06-23T01:10:28.882Z,73.76
2018-06-23T01:12:57.116Z,74.09
2018-06-23T01:15:25.433Z,73.99
2018-06-23T01:17:53.659Z,73.42
2018-06-23T01:20:21.888Z,73.29
2018-06-23T01:22:50.286Z,73.23
2018-06-23T01:25:18.555Z,73.33
2018-06-23T01:27:46.826Z,73.60
2018-06-23T01:30:15.143Z,73.49
2018-06-23T01:32:43.408Z,73.53
2018-06-23T01:35:11.642Z,72.95
2018-06-23T01:37:39.865Z,73.52
2018-06-23T01:40:08.117Z,73.56
2018-06-23T01:42:36.346Z,73.04
2018-06-23T01:45:04.755Z,73.44
2018-06-23T01:47:32.967Z,73.08
2018-06-23T01:50:01.298Z,73.29
2018-06-23T01:52:29.563Z,73.50
2018-06-23T01:54:57.783Z,73.27
2018-06-23T01:57:26.086Z,74.04
2018-06-23T01:59:54.369Z,73.63
2018-06-23T02:02:22.729Z,73.53
2018-06-23T02:04:51.079Z,74.30
2018-06-23T02:07:19.428Z,74.54
2018-06-23T02:09:47.738Z,74.10
2018-06-23T02:12:16.077Z,75.15
2018-06-23T02:14:49.637Z,75.02
2018-06-23T02:17:23.237Z,74.61
2018-06-23T02:19:56.880Z,74.71
2018-06-23T02:22:30.527Z,74.67
2018-06-23T02:25:04.317Z,74.71
2018-06-23T02:27:37.844Z,75.23
2018-06-23T02:30:11.565Z,75.51
2018-06-23T02:32:43.363Z,75.46
2018-06-23T02:35:11.681Z,74.90
2018-06-23T02:37:40.457Z,76.78
2018-06-23T02:40:08.877Z,77.21
2018-06-23T02:42:37.432Z,77.58
2018-06-23T02:45:06.740Z,77.77
2018-06-23T02:47:35.403Z,78.31
2018-06-23T02:50:03.682Z,78.37
2018-06-23T02:52:32.250Z,79.19
2018-06-23T02:55:00.722Z,80.50
2018-06-23T02:57:29.241Z,82.42
2018-06-23T02:59:57.540Z,83.69
2018-06-23T03:02:26.091Z,83.72
2018-06-23T03:04:54.463Z,83.88
2018-06-23T03:07:22.724Z,83.20
2018-06-23T03:09:50.953Z,82.95
2018-06-23T03:12:19.246Z,84.00
2018-06-23T03:14:47.551Z,83.16
2018-06-23T03:17:17.806Z,83.91
2018-06-23T03:19:50.394Z,83.16
2018-06-23T03:22:18.869Z,84.36
2018-06-23T03:24:47.180Z,84.57
2018-06-23T03:27:15.412Z,84.65
2018-06-23T03:29:43.641Z,85.06
2018-06-23T03:32:12.476Z,84.82
2018-06-23T03:34:40.858Z,84.75
2018-06-23T03:37:09.112Z,85.53
2018-06-23T03:39:37.455Z,84.79
2018-06-23T03:42:06.639Z,85.29
2018-06-23T03:44:34.965Z,85.04
2018-06-23T03:47:03.264Z,85.10
2018-06-23T03:49:31.551Z,83.90
2018-06-23T03:51:59.797Z,84.88
2018-06-23T03:54:28.045Z,84.62
2018-06-23T03:56:56.332Z,84.62
2018-06-23T03:59:24.540Z,84.97
2018-06-23T04:01:52.780Z,86.27
2018-06-23T04:04:21.088Z,85.58
2018-06-23T04:06:49.375Z,85.90
2018-06-23T04:09:17.613Z,86.12
2018-06-23T04:11:45.836Z,85.64
2018-06-23T04:14:14.465Z,85.92
2018-06-23T04:16:42.729Z,86.60
2018-06-23T04:19:10.960Z,86.93
2018-06-23T04:21:39.210Z,86.16
2018-06-23T04:24:07.516Z,86.48
2018-06-23T04:26:36.219Z,86.45
2018-06-23T04:29:04.471Z,86.40
2018-06-23T04:31:32.762Z,85.93
2018-06-23T04:34:01.000Z,86.40
2018-06-23T04:36:29.292Z,86.45
2018-06-23T04:38:57.561Z,86.81
2018-06-23T04:41:25.763Z,87.26
2018-06-23T04:43:54.106Z,86.54
2018-06-23T04:46:22.345Z,87.26
2018-06-23T04:48:50.621Z,87.60
2018-06-23T04:51:19.821Z,86.56
2018-06-23T04:53:49.238Z,86.91
2018-06-23T04:56:17.822Z,87.84
2018-06-23T04:58:46.045Z,87.26
2018-06-23T05:01:14.388Z,87.81
2018-06-23T05:03:42.667Z,86.60
2018-06-23T05:06:11.012Z,87.29
2018-06-23T05:08:39.498Z,87.63
2018-06-23T05:11:08.499Z,87.37
2018-06-23T05:13:37.347Z,87.70
2018-06-23T05:16:06.107Z,87.56
2018-06-23T05:18:34.452Z,87.46
2018-06-23T05:21:02.873Z,87.84
2018-06-23T05:23:31.220Z,87.27
2018-06-23T05:25:59.480Z,88.06
2018-06-23T05:28:27.815Z,88.66
2018-06-23T05:30:56.081Z,88.23
2018-06-23T05:33:24.524Z,88.39
2018-06-23T05:35:53.344Z,88.45
2018-06-23T05:38:21.598Z,88.21
2018-06-23T05:40:50.561Z,88.17
2018-06-23T05:43:19.225Z,88.43
2018-06-23T05:45:47.455Z,88.28
2018-06-23T05:48:15.739Z,88.27
2018-06-23T05:50:44.161Z,87.89
2018-06-23T05:53:12.413Z,88.38
2018-06-23T05:55:40.702Z,88.19
2018-06-23T05:58:09.033Z,88.18
2018-06-23T06:00:37.704Z,88.01
2018-06-23T06:03:05.932Z,88.45
2018-06-23T06:05:34.234Z,87.82
2018-06-23T06:08:02.505Z,87.75
2018-06-23T06:10:30.863Z,88.18
2018-06-23T06:12:59.100Z,88.78
2018-06-23T06:15:27.378Z,88.22
2018-06-23T06:17:55.681Z,88.35
2018-06-23T06:20:24.064Z,88.23
2018-06-23T06:22:52.400Z,88.30
2018-06-23T06:25:21.696Z,87.91
2018-06-23T06:27:50.035Z,88.34
2018-06-23T06:30:18.290Z,88.14
2018-06-23T06:32:46.583Z,88.15
2018-06-23T06:35:14.846Z,88.25
2018-06-23T06:37:43.088Z,88.24
2018-06-23T06:40:11.412Z,88.38
2018-06-23T06:42:39.649Z,88.56
2018-06-23T06:45:08.076Z,87.97
2018-06-23T06:47:36.372Z,88.12
2018-06-23T06:50:05.060Z,87.97
2018-06-23T06:52:33.357Z,88.46
2018-06-23T06:55:01.707Z,88.00
2018-06-23T06:57:30.015Z,88.37
2018-06-23T06:59:58.235Z,88.17
2018-06-23T07:02:26.521Z,87.77
2018-06-23T07:04:54.778Z,87.76
2018-06-23T07:07:23.075Z,87.55
2018-06-23T07:09:51.312Z,87.83
2018-06-23T07:12:19.575Z,87.87
2018-06-23T07:14:47.867Z,87.72
2018-06-23T07:17:16.162Z,88.02
2018-06-23T07:19:44.504Z,87.95
2018-06-23T07:22:12.976Z,87.48
2018-06-23T07:24:41.425Z,87.68
2018-06-23T07:27:09.673Z,87.76
2018-06-23T07:29:38.017Z,87.86
2018-06-23T07:32:06.288Z,87.73
2018-06-23T07:34:34.666Z,87.55
2018-06-23T07:37:02.879Z,87.20
2018-06-23T07:39:31.119Z,87.25
2018-06-23T07:41:59.354Z,86.65
2018-06-23T07:44:27.621Z,87.67
2018-06-23T07:46:55.891Z,87.11
2018-06-23T07:49:24.159Z,86.20
2018-06-23T07:51:52.401Z,86.77
2018-06-23T07:54:20.614Z,86.75
2018-06-23T07:56:49.780Z,86.30
2018-06-23T07:59:18.029Z,85.53
2018-06-23T08:01:46.242Z,85.71
2018-06-23T08:04:14.517Z,85.21
2018-06-23T08:06:42.753Z,85.86
2018-06-23T08:09:11.241Z,84.58
2018-06-23T08:11:39.567Z,85.65
2018-06-23T08:14:07.803Z,84.70
2018-06-23T08:16:36.029Z,84.19
2018-06-23T08:19:04.418Z,83.65
2018-06-23T08:21:33.362Z,84.16
2018-06-23T08:24:01.870Z,83.03
2018-06-23T08:26:30.228Z,82.86
2018-06-23T08:28:58.413Z,82.76
2018-06-23T08:31:26.723Z,81.89
2018-06-23T08:33:55.022Z,82.50
2018-06-23T08:36:23.522Z,81.77
2018-06-23T08:38:51.766Z,80.63
2018-06-23T08:41:20.325Z,81.94
2018-06-23T08:43:48.629Z,81.41
2018-06-23T08:46:16.797Z,81.03
2018-06-23T08:48:45.096Z,81.79
2018-06-23T08:51:13.293Z,82.26
2018-06-23T08:53:41.626Z,83.05
2018-06-23T08:56:09.919Z,82.93
2018-06-23T08:58:38.139Z,83.64
2018-06-23T09:01:06.597Z,82.56
2018-06-23T09:03:34.928Z,82.65
2018-06-23T09:06:03.164Z,82.56
2018-06-23T09:08:31.407Z,82.15
2018-06-23T09:10:59.673Z,81.98
2018-06-23T09:13:27.908Z,83.01
2018-06-23T09:15:56.210Z,82.65
2018-06-23T09:18:24.438Z,82.19
2018-06-23T09:20:52.702Z,82.17
2018-06-23T09:23:20.964Z,82.34
2018-06-23T09:25:49.217Z,82.11
2018-06-23T09:28:17.427Z,81.46
2018-06-23T09:30:45.678Z,81.49
2018-06-23T09:33:14.579Z,80.79
2018-06-23T09:35:42.933Z,80.52
2018-06-23T09:38:11.197Z,80.55
2018-06-23T09:40:39.412Z,79.24
2018-06-23T09:43:07.699Z,79.43
2018-06-23T09:45:35.934Z,78.73
2018-06-23T09:48:04.185Z,78.16
2018-06-23T09:50:33.133Z,77.63
2018-06-23T09:53:01.407Z,77.54
2018-06-23T09:55:29.623Z,78.44
2018-06-23T09:57:57.842Z,75.85
2018-06-23T10:00:29.559Z,77.21
2018-06-23T10:02:59.982Z,76.10
2018-06-23T10:05:28.552Z,75.74
2018-06-23T10:07:57.151Z,74.59
2018-06-23T10:10:25.429Z,75.60
2018-06-23T10:12:53.678Z,76.29
2018-06-23T10:15:22.039Z,76.93
2018-06-23T10:17:50.364Z,76.08
2018-06-23T10:20:18.592Z,75.92
2018-06-23T10:22:46.997Z,75.73
2018-06-23T10:25:15.282Z,74.42
2018-06-23T10:27:43.622Z,74.65
2018-06-23T10:30:11.862Z,71.31
2018-06-23T10:32:40.127Z,70.57
2018-06-23T10:35:08.315Z,70.10
2018-06-23T10:37:37.187Z,71.34
2018-06-23T10:40:12.134Z,71.60
2018-06-23T10:42:40.697Z,70.75
2018-06-23T10:45:08.919Z,71.23
2018-06-23T10:47:37.239Z,71.99
2018-06-23T10:50:05.729Z,71.57
2018-06-23T10:52:34.068Z,72.13
2018-06-23T10:55:02.568Z,71.30
2018-06-23T10:57:30.819Z,71.35
2018-06-23T10:59:59.093Z,70.76
2018-06-23T11:02:27.318Z,70.21
2018-06-23T11:04:55.595Z,71.85
2018-06-23T11:07:23.802Z,70.20
2018-06-23T11:09:52.097Z,69.66
2018-06-23T11:12:20.589Z,70.05
2018-06-23T11:14:48.955Z,70.65
2018-06-23T11:17:17.962Z,70.27
2018-06-23T11:19:46.568Z,69.70
2018-06-23T11:22:15.139Z,69.73
2018-06-23T11:24:43.927Z,70.85
2018-06-23T11:29:47.520Z,70.48
2018-06-23T11:32:15.843Z,70.30
2018-06-23T11:34:44.452Z,70.23
2018-06-23T11:37:13.065Z,71.12
2018-06-23T11:39:41.948Z,72.54
2018-06-23T11:42:10.614Z,73.50
2018-06-23T11:44:39.217Z,74.17
2018-06-23T11:47:08.082Z,72.24
2018-06-23T11:49:44.197Z,72.63
2018-06-23T11:52:13.587Z,71.21
2018-06-23T11:54:41.811Z,71.85
2018-06-23T11:57:10.395Z,71.46
2018-06-23T11:59:38.723Z,71.06
2018-06-23T12:02:07.267Z,72.67
2018-06-23T12:04:35.568Z,71.93
2018-06-23T12:07:03.797Z,72.67
2018-06-23T12:09:32.047Z,73.20
2018-06-23T12:12:00.347Z,76.43
2018-06-23T12:14:28.629Z,76.96
2018-06-23T12:16:56.914Z,76.73
2018-06-23T12:19:25.195Z,75.22
2018-06-23T12:21:53.464Z,76.61
2018-06-23T12:24:21.676Z,78.00
2018-06-23T12:26:49.891Z,79.45
2018-06-23T12:29:18.431Z,80.03
2018-06-23T12:31:46.705Z,80.49
2018-06-23T12:34:14.965Z,79.75
2018-06-23T12:36:43.196Z,78.76
2018-06-23T12:39:12.266Z,79.66
2018-06-23T12:41:41.164Z,79.57
2018-06-23T12:44:09.715Z,78.85
2018-06-23T12:46:38.405Z,78.50
2018-06-23T12:49:06.726Z,77.84
2018-06-23T12:51:35.317Z,78.07
2018-06-23T12:54:03.598Z,78.97
2018-06-23T12:56:31.837Z,78.57
2018-06-23T12:59:00.090Z,78.07
2018-06-23T13:01:28.355Z,77.55
2018-06-23T13:03:56.738Z,77.01
2018-06-23T13:06:25.053Z,76.75
2018-06-23T13:08:53.301Z,76.50
2018-06-23T13:11:21.590Z,76.79
2018-06-23T13:13:50.049Z,76.39
2018-06-23T13:16:18.317Z,77.07
2018-06-23T13:18:46.640Z,77.20
2018-06-23T13:21:14.971Z,76.86
2018-06-23T13:23:43.285Z,76.98
2018-06-23T13:26:11.550Z,76.38
2018-06-23T13:28:39.795Z,76.34
2018-06-23T13:31:08.004Z,76.07
2018-06-23T13:33:36.247Z,76.00
2018-06-23T13:36:04.784Z,76.04
2018-06-23T13:38:33.140Z,75.49
2018-06-23T13:41:03.920Z,75.63
2018-06-23T13:43:32.208Z,74.45
2018-06-23T13:46:00.578Z,75.32
2018-06-23T13:48:28.789Z,75.27
2018-06-23T13:50:57.006Z,75.06
2018-06-23T13:53:25.533Z,74.40
2018-06-23T13:55:54.045Z,74.42
2018-06-23T13:58:22.372Z,75.33
2018-06-23T14:00:50.658Z,74.41
2018-06-23T14:03:19.093Z,75.19
2018-06-23T14:05:47.397Z,74.93
2018-06-23T14:08:15.674Z,74.20
2018-06-23T14:10:43.963Z,74.97
2018-06-23T14:13:12.235Z,74.64
2018-06-23T14:15:40.495Z,74.22
2018-06-23T14:18:08.784Z,75.00
2018-06-23T14:20:36.999Z,74.81
2018-06-23T14:23:05.273Z,74.97
2018-06-23T14:25:33.507Z,75.06
2018-06-23T14:28:01.770Z,75.35
2018-06-23T14:30:29.987Z,74.74
2018-06-23T14:32:58.195Z,74.92
2018-06-23T14:35:26.440Z,74.52
2018-06-23T14:37:54.716Z,74.72
2018-06-23T14:40:23.010Z,74.91
2018-06-23T14:42:51.233Z,74.59
2018-06-23T14:45:19.446Z,75.02
2018-06-23T14:47:47.663Z,75.57
2018-06-23T14:50:15.899Z,75.99
2018-06-23T14:52:44.264Z,75.88
2018-06-23T14:55:12.496Z,76.09
2018-06-23T14:57:40.871Z,75.73
2018-06-23T15:00:09.225Z,75.28
2018-06-23T15:02:37.470Z,75.46
2018-06-23T15:05:05.888Z,76.18
2018-06-23T15:07:34.070Z,77.25
2018-06-23T15:10:13.701Z,77.05
2018-06-23T15:12:53.284Z,78.49
2018-06-23T15:15:21.594Z,77.92
2018-06-23T15:17:49.801Z,77.48
2018-06-23T15:20:18.113Z,77.80
2018-06-23T15:22:46.336Z,77.10
2018-06-23T15:25:14.561Z,76.94
2018-06-23T15:27:42.815Z,77.56
2018-06-23T15:30:11.096Z,77.02
2018-06-23T15:32:39.414Z,77.40
2018-06-23T15:35:07.681Z,76.52
2018-06-23T15:37:35.945Z,76.31
2018-06-23T15:40:04.204Z,75.81
2018-06-23T15:42:32.427Z,76.24
2018-06-23T15:45:00.640Z,75.74
2018-06-23T15:47:28.940Z,76.05
2018-06-23T15:49:57.189Z,76.60
2018-06-23T15:52:25.441Z,76.44
2018-06-23T15:54:53.710Z,75.89
2018-06-23T15:57:21.962Z,75.38
2018-06-23T15:59:50.227Z,75.59
2018-06-23T16:02:18.485Z,75.76
2018-06-23T16:04:46.706Z,76.06
2018-06-23T16:07:14.970Z,75.95
2018-06-23T16:09:43.219Z,76.42
2018-06-23T16:12:11.521Z,76.76
2018-06-23T16:14:39.800Z,77.25
2018-06-23T16:17:08.072Z,76.75
2018-06-23T16:19:36.311Z,77.11
2018-06-23T16:22:04.561Z,77.41
2018-06-23T16:24:32.853Z,77.93
2018-06-23T16:27:01.353Z,78.13
2018-06-23T16:29:29.708Z,78.71
2018-06-23T16:31:58.049Z,77.98
2018-06-23T16:34:26.548Z,78.50
2018-06-23T16:36:54.756Z,77.99
2018-06-23T16:39:23.088Z,77.68
2018-06-23T16:41:51.322Z,77.60
2018-06-23T16:44:19.703Z,77.84
2018-06-23T16:46:47.980Z,77.45
2018-06-23T16:49:16.306Z,77.58
2018-06-23T16:51:44.681Z,77.81
2018-06-23T16:54:13.011Z,77.94
2018-06-23T16:56:41.376Z,77.93
2018-06-23T16:59:16.326Z,78.02
2018-06-23T17:01:44.657Z,77.83
2018-06-23T17:04:13.059Z,77.91
2018-06-23T17:06:41.461Z,77.59
2018-06-23T17:09:10.633Z,78.24
2018-06-23T17:11:39.260Z,78.50
2018-06-23T17:14:07.702Z,78.55
2018-06-23T17:16:36.025Z,77.87
2018-06-23T17:19:04.641Z,78.11
2018-06-23T17:21:32.991Z,78.80
2018-06-23T17:24:01.367Z,78.35
2018-06-23T17:26:29.606Z,78.84
2018-06-23T17:28:57.880Z,79.12
2018-06-23T17:31:26.165Z,78.58
2018-06-23T17:33:54.767Z,78.85
2018-06-23T17:36:23.025Z,78.43
2018-06-23T17:38:51.238Z,79.28
2018-06-23T17:41:19.492Z,79.70
2018-06-23T17:43:47.742Z,79.42
2018-06-23T17:46:16.196Z,79.06
2018-06-23T17:48:44.533Z,80.15
2018-06-23T17:51:12.865Z,79.42
2018-06-23T17:53:41.177Z,79.22
2018-06-23T17:56:09.463Z,79.47
2018-06-23T17:58:37.667Z,78.75
2018-06-23T18:01:05.959Z,78.81
2018-06-23T18:03:34.249Z,78.62
2018-06-23T18:06:02.492Z,79.24
2018-06-23T18:08:30.747Z,79.87
2018-06-23T18:10:58.975Z,80.43
2018-06-23T18:13:27.326Z,80.07
2018-06-23T18:15:55.506Z,80.26
2018-06-23T18:18:23.768Z,80.00
2018-06-23T18:20:52.004Z,79.84
2018-06-23T18:23:20.225Z,79.71
2018-06-23T18:25:48.478Z,79.31
2018-06-23T18:28:16.717Z,79.87
2018-06-23T18:30:44.959Z,79.59
2018-06-23T18:33:13.186Z,79.33
2018-06-23T18:35:41.487Z,79.34
2018-06-23T18:38:09.709Z,80.26
2018-06-23T18:40:38.009Z,80.20
2018-06-23T18:43:06.232Z,80.27
2018-06-23T18:45:34.534Z,80.37
2018-06-23T18:48:02.901Z,80.67
2018-06-23T18:50:31.178Z,80.69
2018-06-23T18:52:59.505Z,80.52
2018-06-23T18:55:27.780Z,80.61
2018-06-23T18:57:56.101Z,80.81
2018-06-23T19:00:24.559Z,81.25
2018-06-23T19:02:52.841Z,81.36
2018-06-23T19:05:21.203Z,81.71
2018-06-23T19:07:49.539Z,81.56
2018-06-23T19:10:17.857Z,82.06
2018-06-23T19:12:46.107Z,82.42
2018-06-23T19:15:14.491Z,82.11
2018-06-23T19:17:42.798Z,82.27
2018-06-23T19:20:11.263Z,82.37
2018-06-23T19:22:39.524Z,82.57
2018-06-23T19:25:07.813Z,82.52
2018-06-23T19:27:36.239Z,82.04
2018-06-23T19:30:05.218Z,82.63
2018-06-23T19:32:33.493Z,81.69
2018-06-23T19:35:01.795Z,81.68
2018-06-23T19:37:30.800Z,81.58
2018-06-23T19:39:59.492Z,81.17
2018-06-23T19:42:27.781Z,81.20
2018-06-23T19:44:56.097Z,80.80
2018-06-23T19:47:24.380Z,80.91
2018-06-23T19:49:52.699Z,81.90
2018-06-23T19:52:20.928Z,81.96
2018-06-23T19:54:49.283Z,81.81
2018-06-23T19:57:17.602Z,81.78
2018-06-23T19:59:45.904Z,82.47
2018-06-23T20:02:14.191Z,82.67
2018-06-23T20:04:42.564Z,82.92
2018-06-23T20:07:10.864Z,83.33
2018-06-23T20:09:39.163Z,82.95
2018-06-23T20:12:07.388Z,83.28
2018-06-23T20:14:35.648Z,82.83
2018-06-23T20:17:03.876Z,83.04
2018-06-23T20:19:32.091Z,83.41
2018-06-23T20:22:00.336Z,83.58
2018-06-23T20:24:28.610Z,83.39
2018-06-23T20:26:56.873Z,83.44
2018-06-23T20:29:25.097Z,83.19
2018-06-23T20:31:53.353Z,83.78
2018-06-23T20:34:21.621Z,83.75
2018-06-23T20:36:49.932Z,83.46
2018-06-23T20:39:18.233Z,83.54
2018-06-23T20:41:46.625Z,84.18
2018-06-23T20:44:15.175Z,83.81
2018-06-23T20:46:43.598Z,84.09
2018-06-23T20:49:11.871Z,84.29
2018-06-23T20:51:40.129Z,84.05
2018-06-23T20:54:08.525Z,84.12
2018-06-23T20:56:36.775Z,83.97
2018-06-23T20:59:05.066Z,84.10
2018-06-23T21:01:33.353Z,83.87
2018-06-23T21:04:01.621Z,84.41
2018-06-23T21:06:30.069Z,84.36
2018-06-23T21:08:58.398Z,83.76
2018-06-23T21:11:26.739Z,83.42
2018-06-23T21:13:55.777Z,83.44
2018-06-23T21:16:24.101Z,83.54
2018-06-23T21:18:52.410Z,84.27
2018-06-23T21:21:20.613Z,83.92
2018-06-23T21:23:48.948Z,84.03
2018-06-23T21:26:17.245Z,83.30
2018-06-23T21:28:45.606Z,83.13
2018-06-23T21:31:13.917Z,82.90
2018-06-23T21:33:42.194Z,82.89
2018-06-23T21:36:10.440Z,83.22
2018-06-23T21:38:38.816Z,82.91
2018-06-23T21:41:07.151Z,83.06
2018-06-23T21:43:35.380Z,82.83
2018-06-23T21:46:03.617Z,82.80
2018-06-23T21:48:31.838Z,83.07
2018-06-23T21:51:00.083Z,82.18
2018-06-23T21:53:28.324Z,81.82
2018-06-23T21:55:56.655Z,81.74
2018-06-23T21:58:24.892Z,82.01
2018-06-23T22:00:53.134Z,82.04
2018-06-23T22:03:21.609Z,81.53
2018-06-23T22:05:49.912Z,81.35
2018-06-23T22:08:18.265Z,81.45
2018-06-23T22:10:46.497Z,81.17
2018-06-23T22:13:14.769Z,80.50
2018-06-23T22:15:43.120Z,80.52
2018-06-23T22:18:11.415Z,80.92
2018-06-23T22:20:39.673Z,80.75
2018-06-23T22:23:07.915Z,80.68
2018-06-23T22:25:36.190Z,79.89
2018-06-23T22:28:04.448Z,79.44
2018-06-23T22:30:32.694Z,79.92
2018-06-23T22:33:00.914Z,79.45
2018-06-23T22:35:29.143Z,80.11
2018-06-23T22:37:57.361Z,79.64
2018-06-23T22:40:25.605Z,79.87
2018-06-23T22:42:53.824Z,80.17
2018-06-23T22:45:22.018Z,79.19
2018-06-23T22:47:50.260Z,79.28
2018-06-23T22:50:18.477Z,79.47
2018-06-23T22:52:46.727Z,79.61
2018-06-23T22:55:15.090Z,78.99
2018-06-23T22:57:43.365Z,78.40
2018-06-23T23:00:13.339Z,78.01
2018-06-23T23:02:41.882Z,77.86
2018-06-23T23:05:10.645Z,78.55
2018-06-23T23:07:39.314Z,77.81
2018-06-23T23:10:08.908Z,78.40
2018-06-23T23:12:37.548Z,77.91
2018-06-23T23:15:06.399Z,77.62
2018-06-23T23:17:34.644Z,77.48
2018-06-23T23:20:02.885Z,77.79
2018-06-23T23:22:31.582Z,77.71
2018-06-23T23:24:59.831Z,77.04
2018-06-23T23:27:28.089Z,77.11
2018-06-23T23:29:56.321Z,76.97
2018-06-23T23:32:24.616Z,76.95
2018-06-23T23:34:52.829Z,77.02
2018-06-23T23:37:21.227Z,77.25
2018-06-23T23:39:49.569Z,76.72
2018-06-23T23:42:17.828Z,75.95
2018-06-23T23:44:46.056Z,76.46
2018-06-23T23:47:14.337Z,76.59
2018-06-23T23:49:42.619Z,76.14
2018-06-23T23:52:10.986Z,76.21
2018-06-23T23:54:39.232Z,76.23
2018-06-23T23:57:07.484Z,76.27
2018-06-23T23:59:35.733Z,76.47
